createdAt,value
2023-03-05T00:00:49.269Z,92.20
2023-03-05T00:03:15.840Z,92.42
2023-03-05T00:05:42.356Z,94.34
2023-03-05T00:08:08.922Z,93.92
2023-03-05T00:10:35.463Z,93.63
2023-03-05T00:13:02.001Z,93.47
2023-03-05T00:15:28.489Z,95.83
2023-03-05T00:17:55.001Z,97.00
2023-03-05T00:20:21.546Z,95.19
2023-03-05T00:22:48.068Z,93.88
2023-03-05T00:25:14.587Z,93.02
2023-03-05T00:27:41.222Z,95.69
2023-03-05T00:30:08.676Z,97.63
2023-03-05T00:32:36.395Z,97.15
2023-03-05T00:35:03.131Z,97.91
2023-03-05T00:37:29.632Z,99.26
2023-03-05T00:39:57.352Z,97.50
2023-03-05T00:42:23.832Z,97.38
2023-03-05T00:44:50.389Z,96.96
2023-03-05T00:47:18.392Z,96.69
2023-03-05T00:49:45.124Z,95.56
2023-03-05T00:52:11.648Z,94.66
2023-03-05T00:54:38.232Z,94.02
2023-03-05T00:57:05.796Z,96.40
2023-03-05T00:59:32.560Z,97.45
2023-03-05T01:01:59.166Z,97.35
2023-03-05T01:04:25.747Z,96.69
2023-03-05T01:06:52.294Z,96.13
2023-03-05T01:09:19.075Z,95.62
2023-03-05T01:11:45.579Z,97.35
2023-03-05T01:14:12.291Z,97.15
2023-03-05T01:16:38.885Z,96.40
2023-03-05T01:19:05.416Z,96.75
2023-03-05T01:21:32.414Z,95.30
2023-03-05T01:23:59.173Z,96.05
2023-03-05T01:26:25.751Z,95.69
2023-03-05T01:28:52.270Z,95.57
2023-03-05T01:31:19.311Z,96.40
2023-03-05T01:33:46.037Z,95.95
2023-03-05T01:36:15.911Z,97.65
2023-03-05T01:38:43.843Z,97.70
2023-03-05T01:41:11.510Z,96.80
2023-03-05T01:43:38.704Z,95.38
2023-03-05T01:46:28.569Z,95.96
2023-03-05T01:49:04.294Z,95.04
2023-03-05T01:51:36.848Z,95.09
2023-03-05T01:54:06.336Z,94.34
2023-03-05T01:56:33.043Z,94.25
2023-03-05T01:59:03.644Z,97.21
2023-03-05T02:01:51.832Z,97.69
2023-03-05T02:04:22.254Z,98.62
2023-03-05T02:06:49.785Z,96.74
2023-03-05T02:09:16.803Z,95.81
2023-03-05T02:11:43.741Z,97.10
2023-03-05T02:14:10.553Z,98.48
2023-03-05T02:16:38.419Z,99.51
2023-03-05T02:19:11.000Z,99.94
2023-03-05T02:21:44.037Z,99.87
2023-03-05T02:24:16.045Z,99.98
2023-03-05T02:26:44.868Z,99.84
2023-03-05T02:29:15.870Z,98.66
2023-03-05T02:31:43.197Z,100.00
2023-03-05T02:34:09.785Z,100.00
2023-03-05T02:36:36.288Z,100.00
2023-03-05T02:39:03.677Z,99.64
2023-03-05T02:41:30.332Z,97.42
2023-03-05T02:43:58.561Z,97.23
2023-03-05T02:46:25.549Z,99.39
2023-03-05T02:48:52.295Z,100.00
2023-03-05T02:51:18.969Z,99.62
2023-03-05T02:53:46.627Z,99.56
2023-03-05T02:56:14.005Z,100.00
2023-03-05T02:58:40.556Z,100.00
2023-03-05T03:01:08.747Z,100.00
2023-03-05T03:03:35.533Z,100.00
2023-03-05T03:06:02.281Z,100.00
2023-03-05T03:08:28.843Z,100.00
2023-03-05T03:10:56.506Z,99.38
2023-03-05T03:13:26.010Z,99.18
2023-03-05T03:16:02.400Z,100.00
2023-03-05T03:18:28.916Z,99.88
2023-03-05T03:20:55.436Z,98.61
2023-03-05T03:23:21.941Z,98.66
2023-03-05T03:25:48.459Z,100.00
2023-03-05T03:28:14.944Z,100.00
2023-03-05T03:30:41.573Z,100.00
2023-03-05T03:33:08.142Z,100.00
2023-03-05T03:35:34.756Z,99.87
2023-03-05T03:38:01.248Z,100.00
2023-03-05T03:40:27.793Z,100.00
2023-03-05T03:42:54.753Z,99.43
2023-03-05T03:45:24.195Z,97.48
2023-03-05T03:47:51.960Z,97.71
2023-03-05T03:50:18.891Z,98.31
2023-03-05T03:52:45.415Z,99.17
2023-03-05T03:55:11.890Z,100.00
2023-03-05T03:57:38.551Z,100.00
2023-03-05T04:00:10.951Z,100.00
2023-03-05T04:02:41.573Z,100.00
2023-03-05T04:05:08.869Z,100.00
2023-03-05T04:07:35.382Z,100.00
2023-03-05T04:10:02.035Z,100.00
2023-03-05T04:12:28.500Z,100.00
2023-03-05T04:14:55.129Z,100.00
2023-03-05T04:17:21.698Z,100.00
2023-03-05T04:19:48.218Z,100.00
2023-03-05T04:22:17.237Z,100.00
2023-03-05T04:24:44.337Z,100.00
2023-03-05T04:27:11.866Z,100.00
2023-03-05T04:29:38.633Z,100.00
2023-03-05T04:32:06.382Z,100.00
2023-03-05T04:34:33.429Z,100.00
2023-03-05T04:37:00.043Z,100.00
2023-03-05T04:39:26.718Z,100.00
2023-03-05T04:41:53.260Z,100.00
2023-03-05T04:44:19.783Z,100.00
2023-03-05T04:46:46.334Z,100.00
2023-03-05T04:49:13.115Z,100.00
2023-03-05T04:51:39.661Z,100.00
2023-03-05T04:54:06.222Z,100.00
2023-03-05T04:56:32.812Z,100.00
2023-03-05T04:58:59.988Z,100.00
2023-03-05T05:01:26.754Z,100.00
2023-03-05T05:03:53.276Z,100.00
2023-03-05T05:06:19.839Z,100.00
2023-03-05T05:08:46.321Z,100.00
2023-03-05T05:11:14.372Z,100.00
2023-03-05T05:13:40.905Z,100.00
2023-03-05T05:16:08.565Z,100.00
2023-03-05T05:18:35.617Z,100.00
2023-03-05T05:21:02.147Z,100.00
2023-03-05T05:23:28.724Z,100.00
2023-03-05T05:26:02.856Z,100.00
2023-03-05T05:28:29.897Z,100.00
2023-03-05T05:30:56.421Z,100.00
2023-03-05T05:33:23.690Z,100.00
2023-03-05T05:35:50.789Z,100.00
2023-03-05T05:38:17.767Z,100.00
2023-03-05T05:40:44.480Z,100.00
2023-03-05T05:43:10.989Z,100.00
2023-03-05T05:45:38.601Z,100.00
2023-03-05T05:48:05.171Z,100.00
2023-03-05T05:50:31.775Z,100.00
2023-03-05T05:52:58.270Z,100.00
2023-03-05T05:55:24.917Z,100.00
2023-03-05T05:57:51.392Z,99.22
2023-03-05T06:00:18.289Z,97.64
2023-03-05T06:02:44.864Z,98.46
2023-03-05T06:05:14.766Z,97.82
2023-03-05T06:07:41.540Z,96.73
2023-03-05T06:10:09.922Z,96.79
2023-03-05T06:12:36.420Z,94.70
2023-03-05T06:15:02.968Z,94.27
2023-03-05T06:17:31.016Z,93.36
2023-03-05T06:19:58.725Z,93.74
2023-03-05T06:22:25.589Z,93.62
2023-03-05T06:24:52.307Z,92.94
2023-03-05T06:27:18.909Z,93.22
2023-03-05T06:29:45.537Z,92.95
2023-03-05T06:32:12.162Z,92.81
2023-03-05T06:34:38.776Z,92.73
2023-03-05T06:37:05.350Z,92.10
2023-03-05T06:39:31.869Z,91.55
2023-03-05T06:41:58.421Z,91.92
2023-03-05T06:44:25.689Z,91.69
2023-03-05T06:46:52.296Z,90.87
2023-03-05T06:49:18.918Z,90.32
2023-03-05T06:51:45.470Z,90.62
2023-03-05T06:54:15.004Z,89.90
2023-03-05T06:56:44.218Z,91.21
2023-03-05T06:59:11.910Z,88.87
2023-03-05T07:01:38.739Z,88.43
2023-03-05T07:04:06.777Z,88.81
2023-03-05T07:06:36.274Z,88.34
2023-03-05T07:09:04.198Z,89.25
2023-03-05T07:11:31.140Z,88.35
2023-03-05T07:13:57.882Z,88.06
2023-03-05T07:16:27.305Z,87.82
2023-03-05T07:18:54.760Z,87.09
2023-03-05T07:21:23.963Z,85.46
2023-03-05T07:23:52.936Z,85.43
2023-03-05T07:26:20.190Z,84.81
2023-03-05T07:28:47.142Z,86.00
2023-03-05T07:31:21.192Z,84.49
2023-03-05T07:33:50.984Z,84.75
2023-03-05T07:36:17.555Z,83.74
2023-03-05T07:38:44.448Z,83.84
2023-03-05T07:41:13.707Z,83.98
2023-03-05T07:43:40.405Z,83.75
2023-03-05T07:46:08.956Z,83.27
2023-03-05T07:48:35.682Z,83.26
2023-03-05T07:51:03.583Z,82.22
2023-03-05T07:53:30.467Z,81.85
2023-03-05T07:55:57.057Z,81.31
2023-03-05T07:58:23.566Z,82.11
2023-03-05T08:00:50.089Z,80.90
2023-03-05T08:03:16.697Z,80.71
2023-03-05T08:05:43.511Z,80.22
2023-03-05T08:08:10.181Z,78.71
2023-03-05T08:10:37.819Z,78.97
2023-03-05T08:13:04.706Z,77.98
2023-03-05T08:15:34.144Z,77.98
2023-03-05T08:18:01.567Z,77.19
2023-03-05T08:20:28.094Z,76.12
2023-03-05T08:22:54.579Z,75.09
2023-03-05T08:25:21.565Z,74.17
2023-03-05T08:27:48.714Z,74.36
2023-03-05T08:30:19.247Z,74.01
2023-03-05T08:32:45.890Z,73.45
2023-03-05T08:35:12.490Z,74.28
2023-03-05T08:37:39.098Z,72.97
2023-03-05T08:40:06.516Z,72.12
2023-03-05T08:42:33.108Z,71.67
2023-03-05T08:44:59.742Z,71.86
2023-03-05T08:47:27.321Z,70.80
2023-03-05T08:49:55.635Z,71.60
2023-03-05T08:52:23.210Z,70.14
2023-03-05T08:54:49.973Z,68.71
2023-03-05T08:57:16.732Z,67.31
2023-03-05T08:59:43.274Z,68.58
2023-03-05T09:02:13.756Z,68.70
2023-03-05T09:04:40.707Z,67.76
2023-03-05T09:07:07.752Z,68.29
2023-03-05T09:09:34.301Z,67.89
2023-03-05T09:12:01.276Z,66.55
2023-03-05T09:14:28.653Z,66.45
2023-03-05T09:16:56.682Z,66.56
2023-03-05T09:19:23.476Z,65.47
2023-03-05T09:21:50.124Z,65.07
2023-03-05T09:24:16.646Z,64.64
2023-03-05T09:26:44.122Z,64.46
2023-03-05T09:29:10.839Z,64.41
2023-03-05T09:31:37.844Z,63.94
2023-03-05T09:34:05.986Z,63.23
2023-03-05T09:36:33.290Z,63.98
2023-03-05T09:39:00.003Z,63.20
2023-03-05T09:41:30.216Z,63.34
2023-03-05T09:44:23.554Z,62.83
2023-03-05T09:47:11.601Z,62.08
2023-03-05T09:49:58.114Z,61.49
2023-03-05T09:52:34.650Z,62.35
2023-03-05T09:55:02.565Z,62.01
2023-03-05T09:57:45.712Z,60.70
2023-03-05T10:00:27.171Z,61.12
2023-03-05T10:02:59.592Z,61.51
2023-03-05T10:06:12.364Z,61.97
2023-03-05T10:08:46.812Z,61.81
2023-03-05T10:11:31.286Z,60.45
2023-03-05T10:13:57.789Z,61.09
2023-03-05T10:16:51.231Z,61.75
2023-03-05T10:19:44.806Z,61.41
2023-03-05T10:22:28.471Z,61.54
2023-03-05T10:25:17.158Z,61.73
2023-03-05T10:27:59.426Z,61.78
2023-03-05T10:30:39.268Z,61.84
2023-03-05T10:33:20.164Z,62.66
2023-03-05T10:36:04.282Z,64.27
2023-03-05T10:38:39.665Z,62.46
2023-03-05T10:41:22.656Z,62.79
2023-03-05T10:43:55.406Z,62.45
2023-03-05T10:46:29.079Z,62.70
2023-03-05T10:49:01.321Z,62.25
2023-03-05T10:51:39.321Z,62.76
2023-03-05T10:54:25.256Z,62.24
2023-03-05T10:57:20.905Z,62.26
2023-03-05T10:59:53.701Z,62.58
2023-03-05T11:02:21.977Z,62.86
2023-03-05T11:04:49.971Z,62.88
2023-03-05T11:07:16.361Z,62.74
2023-03-05T11:09:43.949Z,61.96
2023-03-05T11:12:20.025Z,61.33
2023-03-05T11:15:07.183Z,61.31
2023-03-05T11:17:38.762Z,60.89
2023-03-05T11:20:28.894Z,60.77
2023-03-05T11:23:10.777Z,61.34
2023-03-05T11:26:18.804Z,61.96
2023-03-05T11:28:48.309Z,61.15
2023-03-05T11:31:18.264Z,60.41
2023-03-05T11:34:04.047Z,61.44
2023-03-05T11:36:38.931Z,60.64
2023-03-05T11:39:10.632Z,60.37
2023-03-05T11:41:42.211Z,61.16
2023-03-05T11:44:43.455Z,62.16
2023-03-05T11:47:35.886Z,62.32
2023-03-05T11:50:16.982Z,61.98
2023-03-05T11:52:57.262Z,61.04
2023-03-05T11:55:32.564Z,60.58
2023-03-05T11:58:24.573Z,60.56
2023-03-05T12:00:51.153Z,61.47
2023-03-05T12:03:22.547Z,61.27
2023-03-05T12:05:54.086Z,62.01
2023-03-05T12:08:31.951Z,61.39
2023-03-05T12:11:03.880Z,61.24
2023-03-05T12:13:42.500Z,77.64
2023-03-05T12:16:24.260Z,62.63
2023-03-05T12:19:23.910Z,63.38
2023-03-05T12:21:52.581Z,64.03
2023-03-05T12:24:27.874Z,63.99
2023-03-05T12:27:02.044Z,64.06
2023-03-05T12:29:33.322Z,64.44
2023-03-05T12:32:01.309Z,65.01
2023-03-05T12:34:40.485Z,65.50
2023-03-05T12:37:12.574Z,65.35
2023-03-05T12:39:45.492Z,66.00
2023-03-05T12:42:30.371Z,66.85
2023-03-05T12:45:12.347Z,67.34
2023-03-05T12:47:40.599Z,66.59
2023-03-05T12:50:29.008Z,66.66
2023-03-05T12:52:59.650Z,67.40
2023-03-05T12:55:35.988Z,67.29
2023-03-05T12:58:14.000Z,66.28
2023-03-05T13:00:53.445Z,66.90
2023-03-05T13:03:27.137Z,67.08
2023-03-05T13:05:56.618Z,66.70
2023-03-05T13:08:31.570Z,66.67
2023-03-05T13:11:02.012Z,66.09
2023-03-05T13:13:31.065Z,65.29
2023-03-05T13:15:57.744Z,65.63
2023-03-05T13:18:27.469Z,65.13
2023-03-05T13:21:17.080Z,65.19
2023-03-05T13:23:57.857Z,64.28
2023-03-05T13:26:37.427Z,64.91
2023-03-05T13:29:14.911Z,64.30
2023-03-05T13:31:46.447Z,63.12
2023-03-05T13:34:46.783Z,64.01
2023-03-05T13:37:23.814Z,63.66
2023-03-05T13:39:55.196Z,64.85
2023-03-05T13:42:28.441Z,64.61
2023-03-05T13:44:59.691Z,65.32
2023-03-05T13:47:31.982Z,66.31
2023-03-05T13:50:00.436Z,65.82
2023-03-05T13:52:30.845Z,65.89
2023-03-05T13:55:01.677Z,66.35
2023-03-05T13:57:40.728Z,66.38
2023-03-05T14:00:24.955Z,65.78
2023-03-05T14:02:53.077Z,65.29
2023-03-05T14:05:19.951Z,65.36
2023-03-05T14:07:51.178Z,66.18
2023-03-05T14:10:37.626Z,66.03
2023-03-05T14:13:26.969Z,66.33
2023-03-05T14:16:05.244Z,66.54
2023-03-05T14:18:31.785Z,67.10
2023-03-05T14:21:00.136Z,66.41
2023-03-05T14:23:37.332Z,66.27
2023-03-05T14:26:28.626Z,66.21
2023-03-05T14:28:55.548Z,67.10
2023-03-05T14:31:23.322Z,67.75
2023-03-05T14:33:51.030Z,68.44
2023-03-05T14:36:24.021Z,68.29
2023-03-05T14:38:52.262Z,67.60
2023-03-05T14:41:40.059Z,67.95
2023-03-05T14:44:15.096Z,67.01
2023-03-05T14:46:42.655Z,66.05
2023-03-05T14:49:09.744Z,65.82
2023-03-05T14:51:41.264Z,65.92
2023-03-05T14:54:18.789Z,64.79
2023-03-05T14:56:45.264Z,65.12
2023-03-05T14:59:11.788Z,64.61
2023-03-05T15:01:38.396Z,64.15
2023-03-05T15:04:04.945Z,63.16
2023-03-05T15:06:34.223Z,62.98
2023-03-05T15:09:02.064Z,62.37
2023-03-05T15:11:28.595Z,62.21
2023-03-05T15:13:55.153Z,61.67
2023-03-05T15:16:22.020Z,61.38
2023-03-05T15:18:48.814Z,60.25
2023-03-05T15:21:15.640Z,60.67
2023-03-05T15:23:44.116Z,60.44
2023-03-05T15:26:13.856Z,60.08
2023-03-05T15:28:40.914Z,59.24
2023-03-05T15:31:08.278Z,60.74
2023-03-05T15:33:35.200Z,59.84
2023-03-05T15:36:01.781Z,59.20
2023-03-05T15:38:28.330Z,60.37
2023-03-05T15:40:54.834Z,59.79
2023-03-05T15:43:21.309Z,59.71
2023-03-05T15:45:48.114Z,58.89
2023-03-05T15:48:14.778Z,59.96
2023-03-05T15:50:43.347Z,60.21
2023-03-05T15:53:13.091Z,59.33
2023-03-05T15:55:40.917Z,60.46
2023-03-05T15:58:07.778Z,61.21
2023-03-05T16:00:37.083Z,60.62
2023-03-05T16:03:03.999Z,60.82
2023-03-05T16:05:30.606Z,60.82
2023-03-05T16:07:58.473Z,61.63
2023-03-05T16:10:28.115Z,60.82
2023-03-05T16:13:09.396Z,62.47
2023-03-05T16:15:39.533Z,62.37
2023-03-05T16:18:10.361Z,61.46
2023-03-05T16:20:37.693Z,62.58
2023-03-05T16:23:05.505Z,63.59
2023-03-05T16:25:32.472Z,62.66
2023-03-05T16:27:58.987Z,63.32
2023-03-05T16:30:25.501Z,62.62
2023-03-05T16:32:53.715Z,64.91
2023-03-05T16:35:20.551Z,61.87
2023-03-05T16:37:47.606Z,62.10
2023-03-05T16:40:14.365Z,62.58
2023-03-05T16:42:41.879Z,65.74
2023-03-05T16:45:09.586Z,64.35
2023-03-05T16:47:36.114Z,64.67
2023-03-05T16:50:02.831Z,64.36
2023-03-05T16:52:30.370Z,63.97
2023-03-05T16:54:56.830Z,64.93
2023-03-05T16:57:25.395Z,68.20
2023-03-05T16:59:52.672Z,68.00
2023-03-05T17:02:19.169Z,67.28
2023-03-05T17:04:46.064Z,67.76
2023-03-05T17:07:12.633Z,70.13
2023-03-05T17:09:39.232Z,65.54
2023-03-05T17:12:05.889Z,66.33
2023-03-05T17:14:32.454Z,66.22
2023-03-05T17:16:59.053Z,68.54
2023-03-05T17:19:25.622Z,69.42
2023-03-05T17:21:52.339Z,67.08
2023-03-05T17:24:22.282Z,67.25
2023-03-05T17:26:50.022Z,64.16
2023-03-05T17:29:18.758Z,64.70
2023-03-05T17:31:46.296Z,63.53
2023-03-05T17:34:12.814Z,63.68
2023-03-05T17:36:39.397Z,64.38
2023-03-05T17:39:06.045Z,64.14
2023-03-05T17:41:32.505Z,65.30
2023-03-05T17:43:58.964Z,65.12
2023-03-05T17:46:25.855Z,63.96
2023-03-05T17:48:52.342Z,62.78
2023-03-05T17:51:18.864Z,63.05
2023-03-05T17:53:45.502Z,62.92
2023-03-05T17:56:13.217Z,63.52
2023-03-05T17:58:40.912Z,64.18
2023-03-05T18:01:08.258Z,64.01
2023-03-05T18:03:36.322Z,63.48
2023-03-05T18:06:03.733Z,63.19
2023-03-05T18:08:30.424Z,66.12
2023-03-05T18:10:56.896Z,67.67
2023-03-05T18:13:23.384Z,69.19
2023-03-05T18:15:49.911Z,69.47
2023-03-05T18:18:18.163Z,65.74
2023-03-05T18:20:45.447Z,64.80
2023-03-05T18:23:12.116Z,66.42
2023-03-05T18:25:38.755Z,67.05
2023-03-05T18:28:11.051Z,66.44
2023-03-05T18:30:38.175Z,68.71
2023-03-05T18:33:05.065Z,69.18
2023-03-05T18:35:33.391Z,69.62
2023-03-05T18:38:00.412Z,67.71
2023-03-05T18:40:29.504Z,70.88
2023-03-05T18:42:55.984Z,68.90
2023-03-05T18:45:23.163Z,68.00
2023-03-05T18:47:53.945Z,68.39
2023-03-05T18:50:21.717Z,68.37
2023-03-05T18:52:48.245Z,69.10
2023-03-05T18:55:17.532Z,67.56
2023-03-05T18:57:44.108Z,67.41
2023-03-05T19:00:27.035Z,69.95
2023-03-05T19:02:54.157Z,73.33
2023-03-05T19:05:21.368Z,76.72
2023-03-05T19:07:48.245Z,71.18
2023-03-05T19:10:16.212Z,71.20
2023-03-05T19:12:49.642Z,70.22
2023-03-05T19:15:16.810Z,70.94
2023-03-05T19:17:43.346Z,72.73
2023-03-05T19:20:13.391Z,74.65
2023-03-05T19:22:40.374Z,74.42
2023-03-05T19:25:08.466Z,71.43
2023-03-05T19:27:35.019Z,73.11
2023-03-05T19:30:01.555Z,73.45
2023-03-05T19:32:28.198Z,74.52
2023-03-05T19:34:57.026Z,75.28
2023-03-05T19:37:24.738Z,74.86
2023-03-05T19:39:51.678Z,75.68
2023-03-05T19:42:18.368Z,77.44
2023-03-05T19:44:44.857Z,77.95
2023-03-05T19:47:11.367Z,76.36
2023-03-05T19:49:37.946Z,75.81
2023-03-05T19:52:06.130Z,76.05
2023-03-05T19:54:32.981Z,75.21
2023-03-05T19:57:00.036Z,77.50
2023-03-05T19:59:26.693Z,76.57
2023-03-05T20:01:53.641Z,75.42
2023-03-05T20:04:23.155Z,77.89
2023-03-05T20:06:49.902Z,78.96
2023-03-05T20:09:16.534Z,80.70
2023-03-05T20:11:43.579Z,78.93
2023-03-05T20:14:10.303Z,78.56
2023-03-05T20:16:40.595Z,78.02
2023-03-05T20:19:08.111Z,79.98
2023-03-05T20:21:38.504Z,81.07
2023-03-05T20:24:09.806Z,81.85
2023-03-05T20:26:38.220Z,79.29
2023-03-05T20:29:05.360Z,76.97
2023-03-05T20:31:36.653Z,76.74
2023-03-05T20:34:07.939Z,76.75
2023-03-05T20:36:37.281Z,76.50
2023-03-05T20:39:05.581Z,77.49
2023-03-05T20:41:34.137Z,80.54
2023-03-05T20:44:00.947Z,82.25
2023-03-05T20:46:29.995Z,82.39
2023-03-05T20:48:59.113Z,82.86
2023-03-05T20:51:27.381Z,81.70
2023-03-05T20:53:58.095Z,81.45
2023-03-05T20:56:26.227Z,82.97
2023-03-05T20:58:52.682Z,83.40
2023-03-05T21:01:19.217Z,80.78
2023-03-05T21:03:45.674Z,77.88
2023-03-05T21:06:12.268Z,76.71
2023-03-05T21:08:38.893Z,80.05
2023-03-05T21:11:09.565Z,76.11
2023-03-05T21:13:36.628Z,76.47
2023-03-05T21:16:08.414Z,76.51
2023-03-05T21:18:35.594Z,81.08
2023-03-05T21:21:02.439Z,80.22
2023-03-05T21:23:28.956Z,78.27
2023-03-05T21:25:55.460Z,76.33
2023-03-05T21:28:22.040Z,79.22
2023-03-05T21:30:51.925Z,79.72
2023-03-05T21:33:23.244Z,77.76
2023-03-05T21:35:52.628Z,78.74
2023-03-05T21:38:22.978Z,80.83
2023-03-05T21:40:50.323Z,79.79
2023-03-05T21:43:19.325Z,78.75
2023-03-05T21:45:47.197Z,81.08
2023-03-05T21:48:14.325Z,82.41
2023-03-05T21:50:43.718Z,80.63
2023-03-05T21:53:12.052Z,81.39
2023-03-05T21:55:55.071Z,81.92
2023-03-05T21:58:21.526Z,82.61
2023-03-05T22:00:47.992Z,83.47
2023-03-05T22:03:14.494Z,84.53
2023-03-05T22:05:43.349Z,84.83
2023-03-05T22:08:09.885Z,86.02
2023-03-05T22:10:36.464Z,85.77
2023-03-05T22:13:09.937Z,84.17
2023-03-05T22:15:56.927Z,83.49
2023-03-05T22:18:26.442Z,82.01
2023-03-05T22:20:53.585Z,82.94
2023-03-05T22:23:22.723Z,84.74
2023-03-05T22:26:05.250Z,85.90
2023-03-05T22:28:32.933Z,83.45
2023-03-05T22:30:59.455Z,84.14
2023-03-05T22:33:27.009Z,83.94
2023-03-05T22:35:54.101Z,86.55
2023-03-05T22:38:21.201Z,87.89
2023-03-05T22:40:49.237Z,84.45
2023-03-05T22:43:16.824Z,84.85
2023-03-05T22:45:43.379Z,86.99
2023-03-05T22:48:10.811Z,86.03
2023-03-05T22:50:41.902Z,85.46
2023-03-05T22:53:08.490Z,86.92
2023-03-05T22:55:38.962Z,86.35
2023-03-05T22:58:05.447Z,82.09
2023-03-05T23:00:31.944Z,85.16
2023-03-05T23:02:58.413Z,83.41
2023-03-05T23:05:24.902Z,82.95
2023-03-05T23:07:51.420Z,82.75
2023-03-05T23:10:26.331Z,84.86
2023-03-05T23:12:54.475Z,84.11
2023-03-05T23:15:23.950Z,86.20
2023-03-05T23:17:50.597Z,88.50
2023-03-05T23:20:20.827Z,88.75
2023-03-05T23:22:47.679Z,89.00
2023-03-05T23:25:15.889Z,87.69
2023-03-05T23:27:42.685Z,83.36
2023-03-05T23:30:17.024Z,80.36
2023-03-05T23:32:50.061Z,80.60
2023-03-05T23:35:29.091Z,84.41
2023-03-05T23:37:57.613Z,80.50
2023-03-05T23:40:40.357Z,80.55
2023-03-05T23:43:06.817Z,80.85
2023-03-05T23:45:33.748Z,80.63
2023-03-05T23:48:00.581Z,81.49
2023-03-05T23:50:32.978Z,79.82
2023-03-05T23:53:01.961Z,81.19
2023-03-05T23:55:32.478Z,79.32
2023-03-05T23:57:59.107Z,82.35
